createdAt,value
2019-03-27T00:00:27.038Z,6.46
2019-03-27T00:02:56.653Z,6.46
2019-03-27T00:05:26.132Z,6.51
2019-03-27T00:07:55.363Z,6.51
2019-03-27T00:10:24.537Z,6.53
2019-03-27T00:12:54.038Z,6.53
2019-03-27T00:15:23.323Z,6.55
2019-03-27T00:17:52.853Z,6.62
2019-03-27T00:20:22.458Z,6.62
2019-03-27T00:22:52.568Z,6.67
2019-03-27T00:25:22.075Z,6.67
2019-03-27T00:27:51.888Z,6.70
2019-03-27T00:30:21.501Z,6.65
2019-03-27T00:32:51.371Z,6.70
2019-03-27T00:35:20.654Z,6.70
2019-03-27T00:37:49.857Z,6.62
2019-03-27T00:40:19.414Z,6.67
2019-03-27T00:42:48.921Z,6.71
2019-03-27T00:45:26.558Z,6.69
2019-03-27T00:47:49.740Z,6.67
2019-03-27T00:50:19.290Z,6.70
2019-03-27T00:52:48.818Z,6.70
2019-03-27T00:55:18.170Z,6.74
2019-03-27T00:57:47.333Z,6.75
2019-03-27T01:00:26.114Z,6.73
2019-03-27T01:02:55.825Z,6.74
2019-03-27T01:05:25.197Z,6.70
2019-03-27T01:07:54.774Z,6.72
2019-03-27T01:10:23.945Z,6.75
2019-03-27T01:12:54.374Z,6.70
2019-03-27T01:15:23.862Z,6.68
2019-03-27T01:17:53.369Z,6.71
2019-03-27T01:20:22.690Z,6.71
2019-03-27T01:22:52.189Z,6.73
2019-03-27T01:25:21.675Z,6.60
2019-03-27T01:27:52.498Z,6.62
2019-03-27T01:30:22.034Z,6.64
2019-03-27T01:32:51.847Z,6.64
2019-03-27T01:35:21.766Z,6.63
2019-03-27T01:37:51.249Z,6.55
2019-03-27T01:40:20.423Z,6.68
2019-03-27T01:42:49.967Z,6.61
2019-03-27T01:45:19.246Z,6.61
2019-03-27T01:47:49.082Z,6.61
2019-03-27T01:50:18.366Z,6.58
2019-03-27T01:52:48.197Z,6.56
2019-03-27T01:55:17.679Z,6.59
2019-03-27T01:57:47.211Z,6.59
2019-03-27T02:00:16.930Z,6.51
2019-03-27T02:02:46.442Z,6.55
2019-03-27T02:05:16.243Z,6.55
2019-03-27T02:07:45.760Z,6.59
2019-03-27T02:10:15.657Z,6.58
2019-03-27T02:12:45.165Z,6.55
2019-03-27T02:15:14.840Z,6.52
2019-03-27T02:17:44.992Z,6.61
2019-03-27T02:20:14.315Z,6.58
2019-03-27T02:22:43.783Z,6.54
2019-03-27T02:25:13.101Z,6.62
2019-03-27T02:27:43.059Z,6.63
2019-03-27T02:30:12.769Z,6.63
2019-03-27T02:32:42.550Z,6.54
2019-03-27T02:35:11.738Z,6.54
2019-03-27T02:37:41.245Z,6.64
2019-03-27T02:40:10.984Z,6.55
2019-03-27T02:42:40.463Z,6.58
2019-03-27T02:45:10.723Z,6.58
2019-03-27T02:47:39.926Z,6.52
2019-03-27T02:50:09.232Z,6.55
2019-03-27T02:52:38.441Z,6.55
2019-03-27T02:55:08.192Z,6.52
2019-03-27T02:57:37.400Z,6.52
2019-03-27T03:00:07.971Z,6.53
2019-03-27T03:02:37.858Z,6.57
2019-03-27T03:05:07.868Z,6.49
2019-03-27T03:07:37.984Z,6.54
2019-03-27T03:10:09.837Z,6.57
2019-03-27T03:12:39.350Z,6.57
2019-03-27T03:15:09.458Z,6.45
2019-03-27T03:17:38.691Z,6.34
2019-03-27T03:20:09.686Z,6.36
2019-03-27T03:22:39.237Z,6.39
2019-03-27T03:25:08.544Z,6.42
2019-03-27T03:27:38.021Z,6.42
2019-03-27T03:30:08.966Z,6.42
2019-03-27T03:32:38.597Z,6.38
2019-03-27T03:35:08.800Z,6.43
2019-03-27T03:37:38.911Z,6.43
2019-03-27T03:40:09.163Z,6.42
2019-03-27T03:42:38.431Z,6.49
2019-03-27T03:45:09.187Z,6.47
2019-03-27T03:47:38.675Z,6.58
2019-03-27T03:50:10.654Z,6.58
2019-03-27T03:52:40.272Z,6.49
2019-03-27T03:55:09.849Z,6.56
2019-03-27T03:57:39.664Z,6.56
2019-03-27T04:00:09.322Z,6.59
2019-03-27T04:02:38.606Z,6.57
2019-03-27T04:05:08.079Z,6.57
2019-03-27T04:07:37.613Z,6.59
2019-03-27T04:10:07.073Z,6.59
2019-03-27T04:12:36.590Z,6.54
2019-03-27T04:15:06.660Z,6.57
2019-03-27T04:17:35.897Z,6.49
2019-03-27T04:20:06.871Z,6.50
2019-03-27T04:22:36.268Z,6.50
2019-03-27T04:25:05.829Z,6.58
2019-03-27T04:27:35.027Z,6.58
2019-03-27T04:30:04.373Z,6.59
2019-03-27T04:32:33.862Z,6.59
2019-03-27T04:35:03.051Z,6.56
2019-03-27T04:37:32.930Z,6.69
2019-03-27T04:40:02.492Z,6.77
2019-03-27T04:42:32.090Z,6.77
2019-03-27T04:45:01.304Z,6.71
2019-03-27T04:47:32.689Z,6.71
2019-03-27T04:50:02.259Z,6.72
2019-03-27T04:52:31.875Z,6.72
2019-03-27T04:55:01.177Z,6.79
2019-03-27T04:57:30.739Z,6.83
2019-03-27T05:00:00.431Z,6.85
2019-03-27T05:02:29.983Z,6.87
2019-03-27T05:04:59.999Z,6.89
2019-03-27T05:07:29.258Z,6.91
2019-03-27T05:09:58.923Z,6.91
2019-03-27T05:12:28.413Z,6.90
2019-03-27T05:14:57.922Z,7.01
2019-03-27T05:17:27.734Z,7.03
2019-03-27T05:19:57.254Z,6.97
2019-03-27T05:22:27.153Z,7.01
2019-03-27T05:24:56.962Z,7.01
2019-03-27T05:27:26.470Z,6.96
2019-03-27T05:29:55.976Z,6.96
2019-03-27T05:32:25.198Z,7.01
2019-03-27T05:34:55.219Z,7.00
2019-03-27T05:37:24.413Z,7.04
2019-03-27T05:39:54.318Z,7.00
2019-03-27T05:42:23.493Z,7.00
2019-03-27T05:44:53.031Z,7.01
2019-03-27T05:47:22.217Z,6.96
2019-03-27T05:49:51.429Z,6.99
2019-03-27T05:52:21.231Z,6.89
2019-03-27T05:54:51.812Z,6.92
2019-03-27T05:57:21.365Z,6.92
2019-03-27T05:59:50.580Z,6.92
2019-03-27T06:02:20.063Z,6.88
2019-03-27T06:04:49.707Z,6.99
2019-03-27T06:07:19.287Z,6.95
2019-03-27T06:09:48.654Z,7.03
2019-03-27T06:12:18.607Z,7.03
2019-03-27T06:14:47.878Z,7.04
2019-03-27T06:17:17.406Z,7.07
2019-03-27T06:19:46.610Z,7.12
2019-03-27T06:22:15.833Z,7.17
2019-03-27T06:24:45.310Z,6.97
2019-03-27T06:27:14.521Z,7.09
2019-03-27T06:29:43.730Z,7.16
2019-03-27T06:32:13.233Z,7.18
2019-03-27T06:34:43.131Z,7.12
2019-03-27T06:37:12.450Z,7.12
2019-03-27T06:39:41.639Z,7.08
2019-03-27T06:42:11.160Z,7.15
2019-03-27T06:44:40.356Z,7.12
2019-03-27T06:47:09.834Z,7.17
2019-03-27T06:49:39.651Z,7.03
2019-03-27T06:52:09.260Z,7.10
2019-03-27T06:54:38.443Z,7.14
2019-03-27T06:57:07.725Z,7.12
2019-03-27T06:59:37.268Z,7.17
2019-03-27T07:02:06.775Z,7.11
2019-03-27T07:04:36.271Z,6.96
2019-03-27T07:07:05.879Z,7.08
2019-03-27T07:09:35.456Z,7.08
2019-03-27T07:12:05.301Z,7.11
2019-03-27T07:14:38.593Z,7.18
2019-03-27T07:17:07.783Z,7.24
2019-03-27T07:19:37.631Z,7.29
2019-03-27T07:22:06.841Z,7.10
2019-03-27T07:24:36.413Z,7.23
2019-03-27T07:27:06.024Z,7.22
2019-03-27T07:29:36.080Z,7.21
2019-03-27T07:32:05.331Z,7.21
2019-03-27T07:34:34.845Z,7.24
2019-03-27T07:37:04.246Z,7.29
2019-03-27T07:39:33.625Z,7.11
2019-03-27T07:42:03.168Z,7.23
2019-03-27T07:44:32.395Z,7.30
2019-03-27T07:47:04.939Z,7.23
2019-03-27T07:49:34.137Z,7.20
2019-03-27T07:52:03.325Z,7.17
2019-03-27T07:54:32.857Z,7.22
2019-03-27T07:57:02.127Z,7.19
2019-03-27T07:59:31.648Z,7.19
2019-03-27T08:02:00.840Z,7.16
2019-03-27T08:04:30.349Z,7.22
2019-03-27T08:06:59.856Z,7.23
2019-03-27T08:09:29.359Z,7.27
2019-03-27T08:11:58.944Z,7.19
2019-03-27T08:14:28.482Z,7.31
2019-03-27T08:16:58.489Z,7.24
2019-03-27T08:19:27.723Z,7.32
2019-03-27T08:21:57.203Z,7.34
2019-03-27T08:24:26.393Z,7.48
2019-03-27T08:26:55.806Z,7.49
2019-03-27T08:29:24.988Z,7.55
2019-03-27T08:31:54.504Z,7.49
2019-03-27T08:34:24.056Z,7.49
2019-03-27T08:36:53.456Z,7.44
2019-03-27T08:39:22.689Z,7.51
2019-03-27T08:41:51.891Z,7.48
2019-03-27T08:44:21.418Z,7.50
2019-03-27T08:46:50.662Z,7.59
2019-03-27T08:49:22.250Z,7.63
2019-03-27T08:51:51.577Z,7.63
2019-03-27T08:54:21.083Z,7.44
2019-03-27T08:56:50.584Z,7.35
2019-03-27T08:59:19.852Z,7.49
2019-03-27T09:01:49.016Z,7.58
2019-03-27T09:04:18.485Z,7.62
2019-03-27T09:06:47.664Z,7.52
2019-03-27T09:09:16.852Z,7.70
2019-03-27T09:11:46.040Z,7.72
2019-03-27T09:14:15.255Z,7.63
2019-03-27T09:16:44.789Z,7.59
2019-03-27T09:19:13.976Z,7.65
2019-03-27T09:21:43.498Z,7.71
2019-03-27T09:24:12.678Z,7.73
2019-03-27T09:26:41.822Z,7.73
2019-03-27T09:29:11.602Z,7.67
2019-03-27T09:31:45.133Z,7.59
2019-03-27T09:34:12.019Z,7.76
2019-03-27T09:36:41.556Z,7.81
2019-03-27T09:39:11.104Z,7.89
2019-03-27T09:41:40.872Z,7.79
2019-03-27T09:44:10.074Z,7.78
2019-03-27T09:46:39.791Z,7.82
2019-03-27T09:49:08.982Z,7.85
2019-03-27T09:51:38.182Z,7.93
2019-03-27T09:54:07.722Z,7.72
2019-03-27T09:56:36.930Z,7.90
2019-03-27T09:59:06.791Z,7.93
2019-03-27T10:01:36.608Z,7.87
2019-03-27T10:04:05.838Z,7.86
2019-03-27T10:06:35.000Z,7.87
2019-03-27T10:09:05.249Z,7.86
2019-03-27T10:11:34.726Z,7.97
2019-03-27T10:14:04.648Z,7.83
2019-03-27T10:16:34.151Z,7.92
2019-03-27T10:19:03.409Z,7.92
2019-03-27T10:21:33.528Z,7.94
2019-03-27T10:24:03.036Z,7.98
2019-03-27T10:26:32.253Z,7.97
2019-03-27T10:29:01.984Z,8.08
2019-03-27T10:31:31.736Z,8.24
2019-03-27T10:34:01.314Z,8.26
2019-03-27T10:36:30.570Z,8.41
2019-03-27T10:39:00.260Z,8.41
2019-03-27T10:41:29.961Z,8.51
2019-03-27T10:43:59.326Z,8.43
2019-03-27T10:46:29.264Z,8.55
2019-03-27T10:48:58.653Z,8.63
2019-03-27T10:51:28.255Z,8.64
2019-03-27T10:53:57.765Z,8.88
2019-03-27T10:56:27.362Z,8.90
2019-03-27T10:58:56.606Z,8.88
2019-03-27T11:01:26.482Z,8.88
2019-03-27T11:04:03.205Z,8.90
2019-03-27T11:06:32.375Z,8.87
2019-03-27T11:09:01.511Z,8.91
2019-03-27T11:11:30.756Z,8.89
2019-03-27T11:14:00.256Z,8.96
2019-03-27T11:16:29.580Z,8.91
2019-03-27T11:18:58.805Z,9.06
2019-03-27T11:21:28.205Z,8.99
2019-03-27T11:23:57.683Z,8.99
2019-03-27T11:26:27.187Z,8.84
2019-03-27T11:28:56.805Z,8.84
2019-03-27T11:31:26.698Z,8.80
2019-03-27T11:33:55.879Z,8.95
2019-03-27T11:36:25.385Z,8.93
2019-03-27T11:38:55.229Z,9.05
2019-03-27T11:41:24.372Z,9.30
2019-03-27T11:43:55.145Z,9.43
2019-03-27T11:46:25.390Z,9.55
2019-03-27T11:48:54.985Z,9.61
2019-03-27T11:51:24.497Z,9.42
2019-03-27T11:53:53.662Z,9.49
2019-03-27T11:56:22.897Z,9.37
2019-03-27T11:58:52.393Z,9.12
2019-03-27T12:01:21.892Z,9.18
2019-03-27T12:03:51.399Z,9.07
2019-03-27T12:06:20.696Z,9.08
2019-03-27T12:08:50.947Z,9.12
2019-03-27T12:11:20.419Z,9.09
2019-03-27T12:13:51.273Z,9.11
2019-03-27T12:16:20.436Z,9.25
2019-03-27T12:18:49.640Z,9.27
2019-03-27T12:21:18.818Z,9.27
2019-03-27T12:23:48.297Z,9.40
2019-03-27T12:26:17.522Z,9.52
2019-03-27T12:28:47.273Z,9.35
2019-03-27T12:31:17.086Z,9.34
2019-03-27T12:33:46.252Z,9.30
2019-03-27T12:36:16.434Z,9.28
2019-03-27T12:38:45.710Z,9.19
2019-03-27T12:41:14.869Z,9.31
2019-03-27T12:43:44.312Z,9.29
2019-03-27T12:46:14.119Z,9.26
2019-03-27T12:48:43.628Z,9.14
2019-03-27T12:51:13.849Z,9.18
2019-03-27T12:53:43.355Z,9.14
2019-03-27T12:56:12.574Z,9.12
2019-03-27T12:58:41.752Z,9.25
2019-03-27T13:01:11.568Z,9.33
2019-03-27T13:03:40.807Z,9.37
2019-03-27T13:06:10.985Z,9.40
2019-03-27T13:08:40.168Z,9.42
2019-03-27T13:11:09.687Z,9.36
2019-03-27T13:13:38.861Z,9.37
2019-03-27T13:16:08.392Z,9.31
2019-03-27T13:18:37.908Z,9.32
2019-03-27T13:21:07.460Z,9.23
2019-03-27T13:23:36.688Z,9.28
2019-03-27T13:26:06.215Z,9.35
2019-03-27T13:28:48.258Z,9.30
2019-03-27T13:31:07.067Z,9.30
2019-03-27T13:33:36.645Z,9.35
2019-03-27T13:36:06.182Z,9.31
2019-03-27T13:38:35.411Z,9.42
2019-03-27T13:41:04.582Z,9.42
2019-03-27T13:43:34.576Z,9.27
2019-03-27T13:46:03.865Z,9.23
2019-03-27T13:48:33.306Z,9.23
2019-03-27T13:51:02.810Z,9.18
2019-03-27T13:53:32.043Z,9.26
2019-03-27T13:56:01.539Z,9.25
2019-03-27T13:58:30.725Z,9.26
2019-03-27T14:01:00.499Z,9.24
2019-03-27T14:03:29.643Z,9.19
2019-03-27T14:05:59.127Z,9.25
2019-03-27T14:08:28.312Z,9.16
2019-03-27T14:10:57.932Z,9.19
2019-03-27T14:13:27.145Z,9.19
2019-03-27T14:15:56.633Z,9.22
2019-03-27T14:18:26.141Z,9.23
2019-03-27T14:20:55.377Z,9.26
2019-03-27T14:23:24.630Z,9.23
2019-03-27T14:25:54.449Z,9.18
2019-03-27T14:28:24.169Z,9.10
2019-03-27T14:30:55.520Z,9.12
2019-03-27T14:33:25.240Z,9.09
2019-03-27T14:35:54.746Z,8.91
2019-03-27T14:38:23.917Z,8.91
2019-03-27T14:40:53.944Z,9.08
2019-03-27T14:43:23.165Z,9.06
2019-03-27T14:45:52.444Z,9.08
2019-03-27T14:48:21.955Z,9.06
2019-03-27T14:50:51.386Z,9.09
2019-03-27T14:53:20.869Z,9.22
2019-03-27T14:55:50.118Z,9.32
2019-03-27T14:58:19.567Z,9.28
2019-03-27T15:00:49.430Z,9.17
2019-03-27T15:03:18.829Z,9.23
2019-03-27T15:05:48.286Z,9.26
2019-03-27T15:08:18.095Z,9.17
2019-03-27T15:10:47.623Z,9.10
2019-03-27T15:13:17.944Z,9.11
2019-03-27T15:15:47.841Z,9.08
2019-03-27T15:18:17.465Z,9.05
2019-03-27T15:20:46.663Z,9.13
2019-03-27T15:23:16.155Z,9.09
2019-03-27T15:25:45.660Z,9.03
2019-03-27T15:28:15.194Z,9.03
2019-03-27T15:30:44.351Z,9.04
2019-03-27T15:33:14.203Z,9.12
2019-03-27T15:35:44.716Z,9.06
2019-03-27T15:38:14.241Z,8.96
2019-03-27T15:40:45.467Z,8.96
2019-03-27T15:43:15.022Z,9.03
2019-03-27T15:45:44.699Z,9.06
2019-03-27T15:48:14.294Z,9.10
2019-03-27T15:50:54.283Z,8.99
2019-03-27T15:53:14.947Z,8.94
2019-03-27T15:55:44.548Z,8.94
2019-03-27T15:58:14.149Z,8.93
2019-03-27T16:00:43.748Z,8.89
2019-03-27T16:03:13.263Z,8.89
2019-03-27T16:05:42.768Z,8.85
2019-03-27T16:08:12.285Z,8.90
2019-03-27T16:10:41.886Z,8.97
2019-03-27T16:13:11.166Z,8.97
2019-03-27T16:15:40.423Z,8.85
2019-03-27T16:18:10.302Z,8.85
2019-03-27T16:20:39.450Z,8.78
2019-03-27T16:23:09.306Z,8.85
2019-03-27T16:25:38.813Z,8.86
2019-03-27T16:28:08.013Z,8.84
2019-03-27T16:30:37.417Z,8.82
2019-03-27T16:33:06.842Z,8.81
2019-03-27T16:35:37.113Z,8.81
2019-03-27T16:38:06.668Z,8.74
2019-03-27T16:40:47.027Z,8.74
2019-03-27T16:43:16.975Z,8.70
2019-03-27T16:45:46.681Z,8.76
2019-03-27T16:48:16.245Z,8.78
2019-03-27T16:50:46.186Z,8.83
2019-03-27T16:53:15.385Z,8.77
2019-03-27T16:55:45.272Z,8.81
2019-03-27T16:58:14.986Z,8.81
2019-03-27T17:00:44.295Z,8.87
2019-03-27T17:03:13.898Z,8.87
2019-03-27T17:05:53.226Z,8.93
2019-03-27T17:08:14.414Z,8.86
2019-03-27T17:10:43.855Z,8.86
2019-03-27T17:13:13.468Z,8.89
2019-03-27T17:15:42.632Z,8.88
2019-03-27T17:18:11.866Z,8.91
2019-03-27T17:20:41.472Z,8.94
2019-03-27T17:23:17.896Z,8.91
2019-03-27T17:25:42.275Z,8.88
2019-03-27T17:28:11.716Z,8.87
2019-03-27T17:30:40.882Z,8.84
2019-03-27T17:33:10.069Z,8.81
2019-03-27T17:35:39.520Z,8.84
2019-03-27T17:38:10.956Z,8.79
2019-03-27T17:40:40.376Z,8.84
2019-03-27T17:43:09.560Z,8.84
2019-03-27T17:45:38.817Z,8.81
2019-03-27T17:48:08.169Z,8.77
2019-03-27T17:50:37.989Z,8.80
2019-03-27T17:53:07.259Z,8.79
2019-03-27T17:55:36.538Z,8.82
2019-03-27T17:58:07.022Z,8.82
2019-03-27T18:00:44.559Z,8.75
2019-03-27T18:03:14.324Z,8.74
2019-03-27T18:05:43.831Z,8.81
2019-03-27T18:08:13.330Z,8.82
2019-03-27T18:10:42.941Z,8.85
2019-03-27T18:13:12.447Z,8.88
2019-03-27T18:15:42.101Z,8.84
2019-03-27T18:18:11.654Z,8.84
2019-03-27T18:20:40.833Z,8.89
2019-03-27T18:23:10.260Z,8.91
2019-03-27T18:25:39.463Z,8.93
2019-03-27T18:28:09.580Z,8.85
2019-03-27T18:30:38.881Z,8.88
2019-03-27T18:33:08.247Z,8.90
2019-03-27T18:35:37.424Z,8.92
2019-03-27T18:38:06.905Z,8.92
2019-03-27T18:40:36.701Z,8.90
2019-03-27T18:43:06.309Z,8.88
2019-03-27T18:45:35.487Z,8.88
2019-03-27T18:48:04.765Z,8.90
2019-03-27T18:50:34.271Z,8.90
2019-03-27T18:53:03.944Z,8.86
2019-03-27T18:55:33.844Z,8.89
2019-03-27T18:58:03.078Z,8.88
2019-03-27T19:00:32.487Z,8.85
2019-03-27T19:03:01.980Z,8.85
2019-03-27T19:05:31.562Z,8.78
2019-03-27T19:08:00.831Z,8.78
2019-03-27T19:10:30.012Z,8.76
2019-03-27T19:12:59.579Z,8.76
2019-03-27T19:15:28.992Z,8.77
2019-03-27T19:17:58.195Z,8.70
2019-03-27T19:20:27.778Z,8.71
2019-03-27T19:22:57.309Z,8.71
2019-03-27T19:25:26.568Z,8.71
2019-03-27T19:27:56.116Z,8.70
2019-03-27T19:30:25.313Z,8.64
2019-03-27T19:32:54.828Z,8.62
2019-03-27T19:35:24.039Z,8.63
2019-03-27T19:37:54.131Z,8.54
2019-03-27T19:40:23.331Z,8.53
2019-03-27T19:42:52.655Z,8.58
2019-03-27T19:45:22.039Z,8.63
2019-03-27T19:47:51.326Z,8.60
2019-03-27T19:50:20.536Z,8.51
2019-03-27T19:52:50.340Z,8.55
2019-03-27T19:55:19.865Z,8.52
2019-03-27T19:57:49.355Z,8.43
2019-03-27T20:00:19.368Z,8.43
2019-03-27T20:02:49.151Z,8.42
2019-03-27T20:05:18.402Z,8.45
2019-03-27T20:07:47.675Z,8.40
2019-03-27T20:10:16.937Z,8.42
2019-03-27T20:12:46.389Z,8.42
2019-03-27T20:15:15.764Z,8.34
2019-03-27T20:17:44.963Z,8.34
2019-03-27T20:20:15.511Z,8.32
2019-03-27T20:22:45.022Z,8.34
2019-03-27T20:25:15.154Z,8.34
2019-03-27T20:27:44.670Z,8.30
2019-03-27T20:30:15.205Z,8.22
2019-03-27T20:32:44.674Z,8.26
2019-03-27T20:35:14.168Z,8.30
2019-03-27T20:37:43.427Z,8.35
2019-03-27T20:40:13.225Z,8.34
2019-03-27T20:42:42.669Z,8.37
2019-03-27T20:45:12.429Z,8.33
2019-03-27T20:47:41.616Z,8.31
2019-03-27T20:50:10.880Z,8.32
2019-03-27T20:52:41.032Z,8.28
2019-03-27T20:55:10.647Z,8.26
2019-03-27T20:57:40.147Z,8.28
2019-03-27T21:00:10.072Z,8.24
2019-03-27T21:02:39.253Z,8.32
2019-03-27T21:05:19.924Z,8.28
2019-03-27T21:07:49.286Z,8.30
2019-03-27T21:10:18.827Z,8.28
2019-03-27T21:12:48.347Z,8.28
2019-03-27T21:15:17.949Z,8.30
2019-03-27T21:17:47.101Z,8.34
2019-03-27T21:20:16.559Z,8.30
2019-03-27T21:22:46.058Z,8.21
2019-03-27T21:25:15.663Z,8.24
2019-03-27T21:27:45.179Z,8.21
2019-03-27T21:30:14.898Z,8.13
2019-03-27T21:32:44.589Z,8.13
2019-03-27T21:35:14.103Z,8.24
2019-03-27T21:37:43.622Z,8.25
2019-03-27T21:40:13.484Z,8.29
2019-03-27T21:42:42.930Z,8.22
2019-03-27T21:45:12.342Z,8.16
2019-03-27T21:47:41.563Z,8.16
2019-03-27T21:50:11.152Z,8.19
2019-03-27T21:52:40.442Z,8.20
2019-03-27T21:55:22.035Z,8.18
2019-03-27T21:57:41.030Z,8.14
2019-03-27T22:00:10.969Z,8.18
2019-03-27T22:02:40.288Z,8.13
2019-03-27T22:05:09.521Z,8.13
2019-03-27T22:07:39.123Z,8.12
2019-03-27T22:10:08.544Z,8.13
2019-03-27T22:12:38.710Z,8.11
2019-03-27T22:15:09.474Z,8.12
2019-03-27T22:17:38.636Z,8.11
2019-03-27T22:20:08.259Z,8.02
2019-03-27T22:22:38.091Z,8.02
2019-03-27T22:25:07.809Z,7.98
2019-03-27T22:27:36.950Z,8.06
2019-03-27T22:30:06.943Z,8.04
2019-03-27T22:32:36.415Z,8.04
2019-03-27T22:35:05.781Z,8.04
2019-03-27T22:37:35.335Z,8.09
2019-03-27T22:40:04.932Z,8.11
2019-03-27T22:42:34.546Z,8.04
2019-03-27T22:45:04.763Z,8.11
2019-03-27T22:47:34.019Z,8.09
2019-03-27T22:50:03.425Z,8.09
2019-03-27T22:52:32.920Z,8.11
2019-03-27T22:55:02.123Z,8.09
2019-03-27T22:57:31.298Z,8.07
2019-03-27T23:00:01.096Z,8.04
2019-03-27T23:02:30.999Z,8.04
2019-03-27T23:05:00.636Z,8.10
2019-03-27T23:07:30.110Z,8.11
2019-03-27T23:09:59.618Z,8.14
2019-03-27T23:12:29.151Z,8.05
2019-03-27T23:14:58.343Z,8.08
2019-03-27T23:17:27.826Z,8.12
2019-03-27T23:19:57.490Z,8.12
2019-03-27T23:22:27.096Z,8.09
2019-03-27T23:24:56.246Z,8.06
2019-03-27T23:27:26.260Z,8.04
2019-03-27T23:29:56.379Z,8.03
2019-03-27T23:32:25.937Z,8.03
2019-03-27T23:34:55.708Z,8.02
2019-03-27T23:37:24.906Z,8.06
2019-03-27T23:39:54.215Z,7.96
2019-03-27T23:42:23.483Z,8.00
2019-03-27T23:44:53.213Z,8.00
2019-03-27T23:47:22.435Z,8.00
2019-03-27T23:49:51.957Z,8.01
2019-03-27T23:52:21.934Z,8.03
2019-03-27T23:54:51.154Z,8.03
2019-03-27T23:57:20.943Z,7.95
2019-03-27T23:59:50.477Z,8.00
